Woodland, Pennsylvania
Current Conditions -  °F | °C
As of 2:11 PM on Friday 28 Nov 2014 (Local Time) from KFIG Reporting Station
Overcast Overcast  
Wind Chill: 18°   Ceiling: 3200
Heat Index: 26°   Visibility: 10mi
Dew Point: 15°   Wind: 8mph
Humidity: 63%   Direction: 280°W
Pressure: 30.19"   Gusts: NA
Location:  41°N, 78.34°W
Report Text: KFIG 281911Z AUTO 28007KT 10SM OVC032 M03/M09 A3019 RMK AO2 T10331094
Loading
Personal Weather Stations






























Interactive Weather Map New forecast layout! Learn more

10-Day Weather Forecast

Advertisements
Track Severe Weather on mobile